sensor_id;sensor_type;location;lat;lon;timestamp;P1;durP1;ratioP1;P2;durP2;ratioP2
15256;SDS011;7731;50.720;6.912;2024-02-21T00:00:24;13.98;;;8.18;;
15256;SDS011;7731;50.720;6.912;2024-02-21T00:02:58;11.50;;;7.20;;
15256;SDS011;7731;50.720;6.912;2024-02-21T00:05:33;14.43;;;7.70;;
15256;SDS011;7731;50.720;6.912;2024-02-21T00:08:06;15.18;;;7.55;;
15256;SDS011;7731;50.720;6.912;2024-02-21T00:10:45;12.60;;;7.55;;
15256;SDS011;7731;50.720;6.912;2024-02-21T00:13:19;16.23;;;7.95;;
15256;SDS011;7731;50.720;6.912;2024-02-21T00:15:49;12.38;;;7.63;;
15256;SDS011;7731;50.720;6.912;2024-02-21T00:18:19;14.75;;;7.95;;
15256;SDS011;7731;50.720;6.912;2024-02-21T00:20:55;13.02;;;7.95;;
15256;SDS011;7731;50.720;6.912;2024-02-21T00:23:28;11.52;;;7.22;;
15256;SDS011;7731;50.720;6.912;2024-02-21T00:26:01;12.18;;;7.32;;
15256;SDS011;7731;50.720;6.912;2024-02-21T00:28:35;13.23;;;7.50;;
15256;SDS011;7731;50.720;6.912;2024-02-21T00:31:08;15.07;;;8.43;;
15256;SDS011;7731;50.720;6.912;2024-02-21T00:33:38;14.77;;;8.43;;
15256;SDS011;7731;50.720;6.912;2024-02-21T00:36:11;12.07;;;7.72;;
15256;SDS011;7731;50.720;6.912;2024-02-21T00:38:48;11.07;;;6.95;;
15256;SDS011;7731;50.720;6.912;2024-02-21T00:41:21;15.57;;;7.80;;
15256;SDS011;7731;50.720;6.912;2024-02-21T00:43:54;10.57;;;6.93;;
15256;SDS011;7731;50.720;6.912;2024-02-21T00:46:27;15.95;;;8.00;;
15256;SDS011;7731;50.720;6.912;2024-02-21T00:49:05;10.93;;;7.47;;
15256;SDS011;7731;50.720;6.912;2024-02-21T00:51:42;11.73;;;7.72;;
15256;SDS011;7731;50.720;6.912;2024-02-21T00:54:14;12.45;;;6.97;;
15256;SDS011;7731;50.720;6.912;2024-02-21T00:56:47;10.38;;;6.63;;
15256;SDS011;7731;50.720;6.912;2024-02-21T00:59:23;11.40;;;7.25;;
15256;SDS011;7731;50.720;6.912;2024-02-21T01:01:54;13.15;;;6.75;;
15256;SDS011;7731;50.720;6.912;2024-02-21T01:04:27;12.32;;;6.70;;
15256;SDS011;7731;50.720;6.912;2024-02-21T01:07:02;11.30;;;6.43;;
15256;SDS011;7731;50.720;6.912;2024-02-21T01:09:32;11.65;;;6.65;;
15256;SDS011;7731;50.720;6.912;2024-02-21T01:12:06;11.98;;;6.97;;
15256;SDS011;7731;50.720;6.912;2024-02-21T01:14:36;9.90;;;6.65;;
15256;SDS011;7731;50.720;6.912;2024-02-21T01:17:06;13.38;;;6.50;;
15256;SDS011;7731;50.720;6.912;2024-02-21T01:19:40;12.77;;;6.65;;
15256;SDS011;7731;50.720;6.912;2024-02-21T01:22:22;13.88;;;6.95;;
15256;SDS011;7731;50.720;6.912;2024-02-21T01:24:52;15.00;;;6.75;;
15256;SDS011;7731;50.720;6.912;2024-02-21T01:27:25;13.93;;;6.95;;
15256;SDS011;7731;50.720;6.912;2024-02-21T01:29:56;13.45;;;6.72;;
15256;SDS011;7731;50.720;6.912;2024-02-21T01:32:26;14.02;;;6.28;;
15256;SDS011;7731;50.720;6.912;2024-02-21T01:34:59;10.18;;;6.10;;
15256;SDS011;7731;50.720;6.912;2024-02-21T01:37:29;12.75;;;7.00;;
15256;SDS011;7731;50.720;6.912;2024-02-21T01:40:06;11.50;;;6.15;;
15256;SDS011;7731;50.720;6.912;2024-02-21T01:42:40;12.05;;;6.35;;
15256;SDS011;7731;50.720;6.912;2024-02-21T01:45:18;12.60;;;6.55;;
15256;SDS011;7731;50.720;6.912;2024-02-21T01:47:49;11.95;;;6.30;;
15256;SDS011;7731;50.720;6.912;2024-02-21T01:50:22;11.90;;;6.82;;
15256;SDS011;7731;50.720;6.912;2024-02-21T01:52:57;11.95;;;5.90;;
15256;SDS011;7731;50.720;6.912;2024-02-21T01:55:27;12.50;;;6.43;;
15256;SDS011;7731;50.720;6.912;2024-02-21T01:58:07;12.40;;;6.28;;
15256;SDS011;7731;50.720;6.912;2024-02-21T02:00:37;13.43;;;6.80;;
15256;SDS011;7731;50.720;6.912;2024-02-21T02:03:12;9.30;;;6.50;;
15256;SDS011;7731;50.720;6.912;2024-02-21T02:05:44;12.98;;;6.53;;
15256;SDS011;7731;50.720;6.912;2024-02-21T02:08:18;13.05;;;6.35;;
15256;SDS011;7731;50.720;6.912;2024-02-21T02:10:50;13.52;;;6.75;;
15256;SDS011;7731;50.720;6.912;2024-02-21T02:13:34;13.13;;;6.40;;
15256;SDS011;7731;50.720;6.912;2024-02-21T02:16:14;11.35;;;7.07;;
15256;SDS011;7731;50.720;6.912;2024-02-21T02:18:44;10.85;;;6.55;;
15256;SDS011;7731;50.720;6.912;2024-02-21T02:21:20;13.93;;;6.57;;
15256;SDS011;7731;50.720;6.912;2024-02-21T02:24:01;13.52;;;7.03;;
15256;SDS011;7731;50.720;6.912;2024-02-21T02:26:38;10.98;;;6.70;;
15256;SDS011;7731;50.720;6.912;2024-02-21T02:29:13;10.27;;;6.18;;
15256;SDS011;7731;50.720;6.912;2024-02-21T02:31:44;12.27;;;6.38;;
15256;SDS011;7731;50.720;6.912;2024-02-21T02:34:15;11.73;;;6.50;;
15256;SDS011;7731;50.720;6.912;2024-02-21T02:36:50;14.30;;;6.78;;
15256;SDS011;7731;50.720;6.912;2024-02-21T02:39:31;13.43;;;6.70;;
15256;SDS011;7731;50.720;6.912;2024-02-21T02:42:01;9.82;;;5.75;;
15256;SDS011;7731;50.720;6.912;2024-02-21T02:44:32;15.13;;;7.03;;
15256;SDS011;7731;50.720;6.912;2024-02-21T02:47:05;13.65;;;6.03;;
15256;SDS011;7731;50.720;6.912;2024-02-21T02:49:35;14.10;;;6.32;;
15256;SDS011;7731;50.720;6.912;2024-02-21T02:52:06;12.57;;;6.15;;
15256;SDS011;7731;50.720;6.912;2024-02-21T02:54:39;11.17;;;6.10;;
15256;SDS011;7731;50.720;6.912;2024-02-21T02:57:09;10.73;;;5.55;;
15256;SDS011;7731;50.720;6.912;2024-02-21T02:59:40;12.27;;;5.93;;
15256;SDS011;7731;50.720;6.912;2024-02-21T03:02:19;10.82;;;6.18;;
15256;SDS011;7731;50.720;6.912;2024-02-21T03:04:56;12.75;;;6.50;;
15256;SDS011;7731;50.720;6.912;2024-02-21T03:07:39;11.82;;;6.07;;
15256;SDS011;7731;50.720;6.912;2024-02-21T03:10:12;11.88;;;6.07;;
15256;SDS011;7731;50.720;6.912;2024-02-21T03:12:51;10.97;;;6.30;;
15256;SDS011;7731;50.720;6.912;2024-02-21T03:15:21;12.40;;;6.50;;
15256;SDS011;7731;50.720;6.912;2024-02-21T03:17:52;13.50;;;6.63;;
15256;SDS011;7731;50.720;6.912;2024-02-21T03:20:22;12.07;;;6.40;;
15256;SDS011;7731;50.720;6.912;2024-02-21T03:22:52;11.77;;;6.53;;
15256;SDS011;7731;50.720;6.912;2024-02-21T03:25:25;11.37;;;6.47;;
15256;SDS011;7731;50.720;6.912;2024-02-21T03:27:56;8.90;;;5.72;;
15256;SDS011;7731;50.720;6.912;2024-02-21T03:30:31;9.63;;;6.20;;
15256;SDS011;7731;50.720;6.912;2024-02-21T03:33:05;12.37;;;6.23;;
15256;SDS011;7731;50.720;6.912;2024-02-21T03:35:35;14.70;;;6.45;;
15256;SDS011;7731;50.720;6.912;2024-02-21T03:38:05;15.27;;;7.23;;
15256;SDS011;7731;50.720;6.912;2024-02-21T03:40:40;11.50;;;5.97;;
15256;SDS011;7731;50.720;6.912;2024-02-21T03:43:14;11.83;;;6.37;;
15256;SDS011;7731;50.720;6.912;2024-02-21T03:45:47;11.33;;;6.23;;
15256;SDS011;7731;50.720;6.912;2024-02-21T03:48:17;15.47;;;6.70;;
15256;SDS011;7731;50.720;6.912;2024-02-21T03:50:50;12.37;;;6.40;;
15256;SDS011;7731;50.720;6.912;2024-02-21T03:53:21;12.77;;;6.40;;
15256;SDS011;7731;50.720;6.912;2024-02-21T03:55:54;11.73;;;6.57;;
15256;SDS011;7731;50.720;6.912;2024-02-21T03:58:31;13.47;;;6.50;;
15256;SDS011;7731;50.720;6.912;2024-02-21T04:01:01;10.93;;;6.20;;
15256;SDS011;7731;50.720;6.912;2024-02-21T04:03:38;12.07;;;6.10;;
15256;SDS011;7731;50.720;6.912;2024-02-21T04:06:09;12.10;;;6.73;;
15256;SDS011;7731;50.720;6.912;2024-02-21T04:08:40;11.70;;;8.50;;
15256;SDS011;7731;50.720;6.912;2024-02-21T04:11:13;13.35;;;6.60;;
15256;SDS011;7731;50.720;6.912;2024-02-21T04:13:43;11.00;;;5.63;;
15256;SDS011;7731;50.720;6.912;2024-02-21T04:16:21;11.23;;;5.50;;
15256;SDS011;7731;50.720;6.912;2024-02-21T04:18:52;8.65;;;5.55;;
15256;SDS011;7731;50.720;6.912;2024-02-21T04:21:25;8.82;;;5.25;;
15256;SDS011;7731;50.720;6.912;2024-02-21T04:23:58;12.48;;;5.72;;
15256;SDS011;7731;50.720;6.912;2024-02-21T04:26:35;10.05;;;5.30;;
15256;SDS011;7731;50.720;6.912;2024-02-21T04:29:05;8.95;;;5.70;;
15256;SDS011;7731;50.720;6.912;2024-02-21T04:31:39;9.48;;;5.43;;
15256;SDS011;7731;50.720;6.912;2024-02-21T04:34:12;10.63;;;6.15;;
15256;SDS011;7731;50.720;6.912;2024-02-21T04:36:48;8.13;;;5.43;;
15256;SDS011;7731;50.720;6.912;2024-02-21T04:39:18;10.27;;;5.10;;
15256;SDS011;7731;50.720;6.912;2024-02-21T04:41:57;11.33;;;5.67;;
15256;SDS011;7731;50.720;6.912;2024-02-21T04:44:30;8.77;;;4.90;;
15256;SDS011;7731;50.720;6.912;2024-02-21T04:47:09;9.00;;;5.03;;
15256;SDS011;7731;50.720;6.912;2024-02-21T04:49:41;8.23;;;5.03;;
15256;SDS011;7731;50.720;6.912;2024-02-21T04:52:15;9.85;;;5.00;;
15256;SDS011;7731;50.720;6.912;2024-02-21T04:54:45;11.68;;;6.60;;
15256;SDS011;7731;50.720;6.912;2024-02-21T04:57:30;9.90;;;5.43;;
15256;SDS011;7731;50.720;6.912;2024-02-21T05:00:04;12.57;;;5.35;;
15256;SDS011;7731;50.720;6.912;2024-02-21T05:02:37;9.27;;;5.05;;
15256;SDS011;7731;50.720;6.912;2024-02-21T05:05:13;7.95;;;4.82;;
15256;SDS011;7731;50.720;6.912;2024-02-21T05:07:44;10.83;;;5.33;;
15256;SDS011;7731;50.720;6.912;2024-02-21T05:10:14;8.32;;;4.90;;
15256;SDS011;7731;50.720;6.912;2024-02-21T05:12:48;9.40;;;4.75;;
15256;SDS011;7731;50.720;6.912;2024-02-21T05:15:19;10.13;;;4.95;;
15256;SDS011;7731;50.720;6.912;2024-02-21T05:17:52;8.20;;;4.55;;
15256;SDS011;7731;50.720;6.912;2024-02-21T05:20:25;9.85;;;5.85;;
15256;SDS011;7731;50.720;6.912;2024-02-21T05:22:58;8.90;;;4.65;;
15256;SDS011;7731;50.720;6.912;2024-02-21T05:25:28;7.70;;;4.90;;
15256;SDS011;7731;50.720;6.912;2024-02-21T05:28:01;8.55;;;4.95;;
15256;SDS011;7731;50.720;6.912;2024-02-21T05:30:33;8.60;;;4.45;;
15256;SDS011;7731;50.720;6.912;2024-02-21T05:33:06;9.10;;;4.38;;
15256;SDS011;7731;50.720;6.912;2024-02-21T05:35:36;8.95;;;5.63;;
15256;SDS011;7731;50.720;6.912;2024-02-21T05:38:09;11.00;;;5.00;;
15256;SDS011;7731;50.720;6.912;2024-02-21T05:40:44;9.25;;;5.43;;
15256;SDS011;7731;50.720;6.912;2024-02-21T05:43:17;7.43;;;4.57;;
15256;SDS011;7731;50.720;6.912;2024-02-21T05:45:48;9.18;;;4.60;;
15256;SDS011;7731;50.720;6.912;2024-02-21T05:48:18;9.20;;;5.05;;
15256;SDS011;7731;50.720;6.912;2024-02-21T05:50:49;9.20;;;4.55;;
15256;SDS011;7731;50.720;6.912;2024-02-21T05:53:22;8.18;;;4.72;;
15256;SDS011;7731;50.720;6.912;2024-02-21T05:55:54;8.55;;;4.57;;
15256;SDS011;7731;50.720;6.912;2024-02-21T05:58:30;9.10;;;4.43;;
15256;SDS011;7731;50.720;6.912;2024-02-21T06:01:07;8.55;;;4.63;;
15256;SDS011;7731;50.720;6.912;2024-02-21T06:03:37;10.30;;;4.60;;
15256;SDS011;7731;50.720;6.912;2024-02-21T06:06:17;8.13;;;4.72;;
15256;SDS011;7731;50.720;6.912;2024-02-21T06:08:51;9.10;;;4.68;;
15256;SDS011;7731;50.720;6.912;2024-02-21T06:11:22;11.95;;;4.50;;
15256;SDS011;7731;50.720;6.912;2024-02-21T06:14:00;8.80;;;4.38;;
15256;SDS011;7731;50.720;6.912;2024-02-21T06:16:33;8.55;;;4.78;;
15256;SDS011;7731;50.720;6.912;2024-02-21T06:19:19;10.40;;;4.53;;
15256;SDS011;7731;50.720;6.912;2024-02-21T06:21:52;9.27;;;4.32;;
15256;SDS011;7731;50.720;6.912;2024-02-21T06:24:22;8.65;;;3.92;;
15256;SDS011;7731;50.720;6.912;2024-02-21T06:26:53;10.38;;;4.35;;
15256;SDS011;7731;50.720;6.912;2024-02-21T06:29:26;11.00;;;5.03;;
15256;SDS011;7731;50.720;6.912;2024-02-21T06:32:02;10.52;;;4.97;;
15256;SDS011;7731;50.720;6.912;2024-02-21T06:34:33;10.30;;;5.00;;
15256;SDS011;7731;50.720;6.912;2024-02-21T06:37:03;9.75;;;5.85;;
15256;SDS011;7731;50.720;6.912;2024-02-21T06:39:34;11.80;;;6.90;;
15256;SDS011;7731;50.720;6.912;2024-02-21T06:42:07;11.23;;;5.80;;
15256;SDS011;7731;50.720;6.912;2024-02-21T06:44:40;10.98;;;5.90;;
15256;SDS011;7731;50.720;6.912;2024-02-21T06:47:10;14.77;;;8.35;;
15256;SDS011;7731;50.720;6.912;2024-02-21T06:49:41;13.98;;;7.20;;
15256;SDS011;7731;50.720;6.912;2024-02-21T06:52:11;21.83;;;10.40;;
15256;SDS011;7731;50.720;6.912;2024-02-21T06:54:44;15.10;;;8.43;;
15256;SDS011;7731;50.720;6.912;2024-02-21T06:57:14;9.05;;;5.32;;
15256;SDS011;7731;50.720;6.912;2024-02-21T06:59:47;10.48;;;5.90;;
15256;SDS011;7731;50.720;6.912;2024-02-21T07:02:17;9.77;;;6.60;;
15256;SDS011;7731;50.720;6.912;2024-02-21T07:04:50;15.45;;;7.50;;
15256;SDS011;7731;50.720;6.912;2024-02-21T07:07:21;13.82;;;7.47;;
15256;SDS011;7731;50.720;6.912;2024-02-21T07:09:51;14.65;;;7.15;;
15256;SDS011;7731;50.720;6.912;2024-02-21T07:12:27;12.80;;;7.35;;
15256;SDS011;7731;50.720;6.912;2024-02-21T07:15:04;14.40;;;8.57;;
15256;SDS011;7731;50.720;6.912;2024-02-21T07:17:49;14.48;;;7.82;;
15256;SDS011;7731;50.720;6.912;2024-02-21T07:20:19;12.68;;;6.57;;
15256;SDS011;7731;50.720;6.912;2024-02-21T07:22:50;13.98;;;7.97;;
15256;SDS011;7731;50.720;6.912;2024-02-21T07:25:20;16.92;;;9.07;;
15256;SDS011;7731;50.720;6.912;2024-02-21T07:27:51;14.77;;;8.63;;
15256;SDS011;7731;50.720;6.912;2024-02-21T07:30:28;17.27;;;8.25;;
15256;SDS011;7731;50.720;6.912;2024-02-21T07:32:59;16.17;;;8.32;;
15256;SDS011;7731;50.720;6.912;2024-02-21T07:35:32;14.13;;;7.35;;
15256;SDS011;7731;50.720;6.912;2024-02-21T07:38:04;13.68;;;7.00;;
15256;SDS011;7731;50.720;6.912;2024-02-21T07:40:35;14.07;;;7.95;;
15256;SDS011;7731;50.720;6.912;2024-02-21T07:43:05;14.65;;;7.95;;
15256;SDS011;7731;50.720;6.912;2024-02-21T07:45:38;10.88;;;5.60;;
15256;SDS011;7731;50.720;6.912;2024-02-21T07:48:08;9.85;;;5.93;;
15256;SDS011;7731;50.720;6.912;2024-02-21T07:50:39;13.95;;;6.35;;
15256;SDS011;7731;50.720;6.912;2024-02-21T07:53:11;13.07;;;6.45;;
15256;SDS011;7731;50.720;6.912;2024-02-21T07:55:42;15.88;;;6.95;;
15256;SDS011;7731;50.720;6.912;2024-02-21T07:58:12;12.23;;;7.00;;
15256;SDS011;7731;50.720;6.912;2024-02-21T08:00:45;9.57;;;5.80;;
15256;SDS011;7731;50.720;6.912;2024-02-21T08:03:18;9.73;;;5.78;;
15256;SDS011;7731;50.720;6.912;2024-02-21T08:05:49;12.38;;;5.97;;
15256;SDS011;7731;50.720;6.912;2024-02-21T08:08:20;12.32;;;6.05;;
15256;SDS011;7731;50.720;6.912;2024-02-21T08:10:51;10.82;;;5.45;;
15256;SDS011;7731;50.720;6.912;2024-02-21T08:13:27;10.85;;;5.53;;
15256;SDS011;7731;50.720;6.912;2024-02-21T08:16:00;13.45;;;5.20;;
15256;SDS011;7731;50.720;6.912;2024-02-21T08:18:31;15.50;;;5.53;;
15256;SDS011;7731;50.720;6.912;2024-02-21T08:21:06;14.25;;;5.45;;
15256;SDS011;7731;50.720;6.912;2024-02-21T08:23:36;10.63;;;4.95;;
15256;SDS011;7731;50.720;6.912;2024-02-21T08:26:06;12.85;;;6.10;;
15256;SDS011;7731;50.720;6.912;2024-02-21T08:28:39;12.77;;;5.13;;
15256;SDS011;7731;50.720;6.912;2024-02-21T08:31:20;9.48;;;4.72;;
15256;SDS011;7731;50.720;6.912;2024-02-21T08:33:55;12.15;;;5.18;;
15256;SDS011;7731;50.720;6.912;2024-02-21T08:36:29;11.75;;;5.30;;
15256;SDS011;7731;50.720;6.912;2024-02-21T08:39:03;10.45;;;4.72;;
15256;SDS011;7731;50.720;6.912;2024-02-21T08:41:36;8.27;;;4.60;;
15256;SDS011;7731;50.720;6.912;2024-02-21T08:44:28;8.60;;;4.80;;
15256;SDS011;7731;50.720;6.912;2024-02-21T08:47:01;11.32;;;5.25;;
15256;SDS011;7731;50.720;6.912;2024-02-21T08:49:32;9.27;;;4.57;;
15256;SDS011;7731;50.720;6.912;2024-02-21T08:52:05;8.40;;;4.18;;
15256;SDS011;7731;50.720;6.912;2024-02-21T08:54:36;9.50;;;4.10;;
15256;SDS011;7731;50.720;6.912;2024-02-21T08:57:09;10.27;;;4.75;;
15256;SDS011;7731;50.720;6.912;2024-02-21T08:59:40;7.25;;;3.60;;
15256;SDS011;7731;50.720;6.912;2024-02-21T09:02:16;9.52;;;3.92;;
15256;SDS011;7731;50.720;6.912;2024-02-21T09:04:46;9.55;;;4.20;;
15256;SDS011;7731;50.720;6.912;2024-02-21T09:07:16;7.20;;;3.70;;
15256;SDS011;7731;50.720;6.912;2024-02-21T09:12:33;8.52;;;3.80;;
15256;SDS011;7731;50.720;6.912;2024-02-21T09:15:04;9.27;;;3.85;;
15256;SDS011;7731;50.720;6.912;2024-02-21T09:17:38;10.18;;;4.15;;
15256;SDS011;7731;50.720;6.912;2024-02-21T09:20:09;12.15;;;4.70;;
15256;SDS011;7731;50.720;6.912;2024-02-21T09:22:44;7.93;;;4.00;;
15256;SDS011;7731;50.720;6.912;2024-02-21T09:25:18;9.63;;;3.83;;
15256;SDS011;7731;50.720;6.912;2024-02-21T09:27:51;8.57;;;3.80;;
15256;SDS011;7731;50.720;6.912;2024-02-21T09:30:24;11.50;;;3.53;;
15256;SDS011;7731;50.720;6.912;2024-02-21T09:32:57;8.35;;;3.78;;
15256;SDS011;7731;50.720;6.912;2024-02-21T09:35:29;8.23;;;3.88;;
15256;SDS011;7731;50.720;6.912;2024-02-21T09:38:07;10.45;;;4.13;;
15256;SDS011;7731;50.720;6.912;2024-02-21T09:40:37;8.18;;;3.65;;
15256;SDS011;7731;50.720;6.912;2024-02-21T09:43:09;9.52;;;3.72;;
15256;SDS011;7731;50.720;6.912;2024-02-21T09:45:42;7.00;;;3.70;;
15256;SDS011;7731;50.720;6.912;2024-02-21T09:48:29;8.48;;;3.38;;
15256;SDS011;7731;50.720;6.912;2024-02-21T09:51:21;9.60;;;3.22;;
15256;SDS011;7731;50.720;6.912;2024-02-21T09:54:01;12.10;;;3.60;;
15256;SDS011;7731;50.720;6.912;2024-02-21T09:56:42;10.55;;;3.33;;
15256;SDS011;7731;50.720;6.912;2024-02-21T09:59:16;8.73;;;4.15;;
15256;SDS011;7731;50.720;6.912;2024-02-21T10:01:46;9.98;;;3.78;;
15256;SDS011;7731;50.720;6.912;2024-02-21T10:04:20;8.27;;;3.25;;
15256;SDS011;7731;50.720;6.912;2024-02-21T10:06:54;9.13;;;3.97;;
15256;SDS011;7731;50.720;6.912;2024-02-21T10:09:28;7.13;;;3.28;;
15256;SDS011;7731;50.720;6.912;2024-02-21T10:12:12;9.13;;;4.07;;
15256;SDS011;7731;50.720;6.912;2024-02-21T10:14:48;10.27;;;3.58;;
15256;SDS011;7731;50.720;6.912;2024-02-21T10:17:30;10.05;;;3.20;;
15256;SDS011;7731;50.720;6.912;2024-02-21T10:20:10;6.13;;;3.00;;
15256;SDS011;7731;50.720;6.912;2024-02-21T10:22:44;6.97;;;3.03;;
15256;SDS011;7731;50.720;6.912;2024-02-21T10:25:14;6.78;;;2.80;;
15256;SDS011;7731;50.720;6.912;2024-02-21T10:27:46;6.88;;;3.20;;
15256;SDS011;7731;50.720;6.912;2024-02-21T10:30:18;6.05;;;3.38;;
15256;SDS011;7731;50.720;6.912;2024-02-21T10:32:50;8.98;;;3.60;;
15256;SDS011;7731;50.720;6.912;2024-02-21T10:35:31;6.25;;;3.03;;
15256;SDS011;7731;50.720;6.912;2024-02-21T10:38:05;10.40;;;3.22;;
15256;SDS011;7731;50.720;6.912;2024-02-21T10:40:36;5.45;;;2.50;;
15256;SDS011;7731;50.720;6.912;2024-02-21T10:43:06;7.45;;;2.67;;
15256;SDS011;7731;50.720;6.912;2024-02-21T10:45:48;7.70;;;2.90;;
15256;SDS011;7731;50.720;6.912;2024-02-21T10:48:22;8.98;;;2.47;;
15256;SDS011;7731;50.720;6.912;2024-02-21T10:51:12;9.07;;;2.75;;
15256;SDS011;7731;50.720;6.912;2024-02-21T10:53:51;5.65;;;2.58;;
15256;SDS011;7731;50.720;6.912;2024-02-21T10:56:33;7.50;;;3.38;;
15256;SDS011;7731;50.720;6.912;2024-02-21T10:59:08;6.05;;;3.17;;
15256;SDS011;7731;50.720;6.912;2024-02-21T11:01:38;10.85;;;3.10;;
15256;SDS011;7731;50.720;6.912;2024-02-21T11:04:09;8.70;;;3.40;;
15256;SDS011;7731;50.720;6.912;2024-02-21T11:06:43;7.97;;;3.65;;
15256;SDS011;7731;50.720;6.912;2024-02-21T11:09:18;7.10;;;2.50;;
15256;SDS011;7731;50.720;6.912;2024-02-21T11:12:02;8.18;;;2.78;;
15256;SDS011;7731;50.720;6.912;2024-02-21T11:14:37;8.45;;;3.20;;
15256;SDS011;7731;50.720;6.912;2024-02-21T11:17:21;6.38;;;3.13;;
15256;SDS011;7731;50.720;6.912;2024-02-21T11:19:53;6.38;;;3.30;;
15256;SDS011;7731;50.720;6.912;2024-02-21T11:22:26;5.93;;;3.10;;
15256;SDS011;7731;50.720;6.912;2024-02-21T11:25:06;6.85;;;3.42;;
15256;SDS011;7731;50.720;6.912;2024-02-21T11:27:45;6.72;;;3.38;;
15256;SDS011;7731;50.720;6.912;2024-02-21T11:30:16;8.15;;;3.33;;
15256;SDS011;7731;50.720;6.912;2024-02-21T11:32:49;9.27;;;3.30;;
15256;SDS011;7731;50.720;6.912;2024-02-21T11:35:19;6.25;;;3.78;;
15256;SDS011;7731;50.720;6.912;2024-02-21T11:37:52;6.72;;;3.05;;
15256;SDS011;7731;50.720;6.912;2024-02-21T11:40:25;7.57;;;3.50;;
15256;SDS011;7731;50.720;6.912;2024-02-21T11:42:58;6.22;;;3.40;;
15256;SDS011;7731;50.720;6.912;2024-02-21T11:45:32;5.55;;;3.15;;
15256;SDS011;7731;50.720;6.912;2024-02-21T11:48:02;7.80;;;3.45;;
15256;SDS011;7731;50.720;6.912;2024-02-21T11:50:35;8.55;;;3.92;;
15256;SDS011;7731;50.720;6.912;2024-02-21T11:53:09;6.35;;;3.47;;
15256;SDS011;7731;50.720;6.912;2024-02-21T11:55:40;10.75;;;3.70;;
15256;SDS011;7731;50.720;6.912;2024-02-21T11:58:15;6.45;;;3.33;;
15256;SDS011;7731;50.720;6.912;2024-02-21T12:00:46;8.90;;;3.83;;
15256;SDS011;7731;50.720;6.912;2024-02-21T12:03:16;10.18;;;4.53;;
15256;SDS011;7731;50.720;6.912;2024-02-21T12:05:49;13.85;;;4.97;;
15256;SDS011;7731;50.720;6.912;2024-02-21T12:08:24;6.57;;;4.00;;
15256;SDS011;7731;50.720;6.912;2024-02-21T12:11:15;9.60;;;4.53;;
15256;SDS011;7731;50.720;6.912;2024-02-21T12:13:58;12.13;;;5.45;;
15256;SDS011;7731;50.720;6.912;2024-02-21T12:16:32;16.38;;;6.38;;
15256;SDS011;7731;50.720;6.912;2024-02-21T12:19:03;16.98;;;8.68;;
15256;SDS011;7731;50.720;6.912;2024-02-21T12:21:35;15.18;;;5.82;;
15256;SDS011;7731;50.720;6.912;2024-02-21T12:24:15;13.57;;;6.82;;
15256;SDS011;7731;50.720;6.912;2024-02-21T12:26:50;14.13;;;5.95;;
15256;SDS011;7731;50.720;6.912;2024-02-21T12:29:21;12.02;;;5.80;;
15256;SDS011;7731;50.720;6.912;2024-02-21T12:31:52;13.90;;;6.13;;
15256;SDS011;7731;50.720;6.912;2024-02-21T12:34:24;11.95;;;5.78;;
15256;SDS011;7731;50.720;6.912;2024-02-21T12:37:14;12.88;;;6.18;;
15256;SDS011;7731;50.720;6.912;2024-02-21T12:39:57;9.65;;;4.10;;
15256;SDS011;7731;50.720;6.912;2024-02-21T12:42:31;9.02;;;4.10;;
15256;SDS011;7731;50.720;6.912;2024-02-21T12:45:01;8.10;;;4.22;;
15256;SDS011;7731;50.720;6.912;2024-02-21T12:47:32;9.93;;;3.85;;
15256;SDS011;7731;50.720;6.912;2024-02-21T12:50:09;7.28;;;3.47;;
15256;SDS011;7731;50.720;6.912;2024-02-21T12:52:41;8.48;;;4.10;;
15256;SDS011;7731;50.720;6.912;2024-02-21T12:55:15;10.18;;;3.97;;
15256;SDS011;7731;50.720;6.912;2024-02-21T12:57:45;7.93;;;3.88;;
15256;SDS011;7731;50.720;6.912;2024-02-21T13:00:16;6.90;;;3.42;;
15256;SDS011;7731;50.720;6.912;2024-02-21T13:02:47;8.70;;;3.55;;
15256;SDS011;7731;50.720;6.912;2024-02-21T13:05:18;4.18;;;2.92;;
15256;SDS011;7731;50.720;6.912;2024-02-21T13:07:49;6.40;;;3.33;;
15256;SDS011;7731;50.720;6.912;2024-02-21T13:10:23;6.85;;;3.60;;
15256;SDS011;7731;50.720;6.912;2024-02-21T13:12:57;4.68;;;2.95;;
15256;SDS011;7731;50.720;6.912;2024-02-21T13:15:30;6.55;;;3.33;;
15256;SDS011;7731;50.720;6.912;2024-02-21T13:18:04;6.05;;;2.95;;
15256;SDS011;7731;50.720;6.912;2024-02-21T13:20:36;6.47;;;3.20;;
15256;SDS011;7731;50.720;6.912;2024-02-21T13:23:07;6.60;;;3.20;;
15256;SDS011;7731;50.720;6.912;2024-02-21T13:25:43;6.30;;;2.88;;
15256;SDS011;7731;50.720;6.912;2024-02-21T13:28:19;4.72;;;2.88;;
15256;SDS011;7731;50.720;6.912;2024-02-21T13:30:50;5.15;;;3.33;;
15256;SDS011;7731;50.720;6.912;2024-02-21T13:33:22;8.20;;;3.33;;
15256;SDS011;7731;50.720;6.912;2024-02-21T13:35:56;7.03;;;3.10;;
15256;SDS011;7731;50.720;6.912;2024-02-21T13:38:33;6.53;;;3.08;;
15256;SDS011;7731;50.720;6.912;2024-02-21T13:41:09;6.38;;;3.50;;
15256;SDS011;7731;50.720;6.912;2024-02-21T13:43:48;25.35;;;17.17;;
15256;SDS011;7731;50.720;6.912;2024-02-21T13:46:21;14.68;;;10.65;;
15256;SDS011;7731;50.720;6.912;2024-02-21T13:48:52;7.38;;;3.25;;
15256;SDS011;7731;50.720;6.912;2024-02-21T13:51:34;7.45;;;3.55;;
15256;SDS011;7731;50.720;6.912;2024-02-21T13:54:10;5.93;;;3.08;;
15256;SDS011;7731;50.720;6.912;2024-02-21T13:56:52;6.65;;;3.03;;
15256;SDS011;7731;50.720;6.912;2024-02-21T13:59:22;7.72;;;2.90;;
15256;SDS011;7731;50.720;6.912;2024-02-21T14:01:55;7.18;;;3.17;;
15256;SDS011;7731;50.720;6.912;2024-02-21T14:04:25;7.03;;;2.92;;
15256;SDS011;7731;50.720;6.912;2024-02-21T14:06:58;7.10;;;2.90;;
15256;SDS011;7731;50.720;6.912;2024-02-21T14:09:28;4.47;;;2.60;;
15256;SDS011;7731;50.720;6.912;2024-02-21T14:12:04;4.60;;;2.45;;
15256;SDS011;7731;50.720;6.912;2024-02-21T14:14:37;6.10;;;2.50;;
15256;SDS011;7731;50.720;6.912;2024-02-21T14:17:11;7.10;;;2.55;;
15256;SDS011;7731;50.720;6.912;2024-02-21T14:19:41;5.72;;;2.50;;
15256;SDS011;7731;50.720;6.912;2024-02-21T14:22:15;4.97;;;2.30;;
15256;SDS011;7731;50.720;6.912;2024-02-21T14:24:45;4.75;;;2.47;;
15256;SDS011;7731;50.720;6.912;2024-02-21T14:27:20;6.07;;;2.78;;
15256;SDS011;7731;50.720;6.912;2024-02-21T14:30:00;5.82;;;3.35;;
15256;SDS011;7731;50.720;6.912;2024-02-21T14:32:37;5.72;;;2.42;;
15256;SDS011;7731;50.720;6.912;2024-02-21T14:35:07;4.60;;;1.85;;
15256;SDS011;7731;50.720;6.912;2024-02-21T14:37:38;3.55;;;2.03;;
15256;SDS011;7731;50.720;6.912;2024-02-21T14:40:09;5.18;;;2.30;;
15256;SDS011;7731;50.720;6.912;2024-02-21T14:42:51;5.22;;;2.53;;
15256;SDS011;7731;50.720;6.912;2024-02-21T14:45:21;5.57;;;2.70;;
15256;SDS011;7731;50.720;6.912;2024-02-21T14:47:59;7.03;;;2.75;;
15256;SDS011;7731;50.720;6.912;2024-02-21T14:50:30;5.18;;;2.70;;
15256;SDS011;7731;50.720;6.912;2024-02-21T14:53:00;3.75;;;2.58;;
15256;SDS011;7731;50.720;6.912;2024-02-21T14:55:31;5.47;;;2.58;;
15256;SDS011;7731;50.720;6.912;2024-02-21T14:58:08;9.20;;;2.97;;
15256;SDS011;7731;50.720;6.912;2024-02-21T15:00:38;4.70;;;2.70;;
15256;SDS011;7731;50.720;6.912;2024-02-21T15:03:09;4.18;;;2.53;;
15256;SDS011;7731;50.720;6.912;2024-02-21T15:05:41;4.85;;;2.13;;
15256;SDS011;7731;50.720;6.912;2024-02-21T15:08:21;4.45;;;2.08;;
15256;SDS011;7731;50.720;6.912;2024-02-21T15:10:52;7.22;;;2.47;;
15256;SDS011;7731;50.720;6.912;2024-02-21T15:13:25;5.95;;;2.22;;
15256;SDS011;7731;50.720;6.912;2024-02-21T15:16:00;4.55;;;2.72;;
15256;SDS011;7731;50.720;6.912;2024-02-21T15:18:31;5.57;;;2.72;;
15256;SDS011;7731;50.720;6.912;2024-02-21T15:21:04;7.28;;;3.28;;
15256;SDS011;7731;50.720;6.912;2024-02-21T15:23:40;4.93;;;2.70;;
15256;SDS011;7731;50.720;6.912;2024-02-21T15:26:10;5.68;;;2.72;;
15256;SDS011;7731;50.720;6.912;2024-02-21T15:28:44;6.00;;;3.30;;
15256;SDS011;7731;50.720;6.912;2024-02-21T15:31:21;7.55;;;2.95;;
15256;SDS011;7731;50.720;6.912;2024-02-21T15:33:52;5.00;;;2.65;;
15256;SDS011;7731;50.720;6.912;2024-02-21T15:36:22;8.07;;;3.30;;